Zero Trim — WCY3091 — position and weather

sailwx.info

Track history (hours):
 
Tides and Currents Weather Stations Pressure Air Temp Water Temp Dewpoint Dewpoint Depression Visibility Wind Speed Wind Dir Waves Ship Positions

Zero Trim

More information available from US FCC via Universal Licensing System and Coast Guard Vessel Documentation Center.

Last reported at 2014-Aug-02 02:32 UTC. Time now 2014-Aug-02 02:50 UTC.
Position N 47°43' W 122°49'.

Length 23 m.

Type: Pleasure craft. MMSI: 366747760.

Date/timePositionNaut miles runAvg speedWind from/ knotsBaromVisibWave heightAir tempDewpointWater temp
2014-Aug-02 02:32N 47°43' W 122°49'0 0.0
2014-Aug-02 01:29N 47°43' W 122°49'0 0.0
2014-Aug-02 00:33N 47°43' W 122°49'0 0.0
2014-Aug-01 23:32N 47°43' W 122°49'0 0.0
2014-Aug-01 22:32N 47°43' W 122°49'0 0.0
2014-Aug-01 21:25N 47°43' W 122°49'0 0.0
2014-Aug-01 20:29N 47°43' W 122°49'0 0.0
2014-Aug-01 19:31N 47°43' W 122°49'0 0.0
2014-Aug-01 18:30N 47°43' W 122°49'0 0.0
2014-Aug-01 17:16N 47°43' W 122°49'0 0.0
2014-Aug-01 16:31N 47°43' W 122°49'0 0.0
2014-Aug-01 15:49N 47°43' W 122°49'0 0.0
2014-Aug-01 15:25N 47°43' W 122°49'0 0.0
2014-Aug-01 14:31N 47°43' W 122°49'0 0.0
2014-Aug-01 13:25N 47°43' W 122°49'0 0.0
2014-Aug-01 12:28N 47°43' W 122°49'0 0.0
2014-Aug-01 11:31N 47°43' W 122°49'0 0.0
2014-Aug-01 10:49N 47°43' W 122°49'0 0.0
2014-Aug-01 10:31N 47°43' W 122°49'0 0.0
2014-Aug-01 09:31N 47°43' W 122°49'0 0.0
2014-Aug-01 09:13N 47°43' W 122°49'0 0.0
2014-Aug-01 08:28N 47°43' W 122°49'0 0.0
2014-Aug-01 07:28N 47°43' W 122°49'0 0.0
2014-Aug-01 06:28N 47°43' W 122°49'0 0.0
2014-Aug-01 05:52N 47°43' W 122°49'0 0.0
2014-Aug-01 05:22N 47°43' W 122°49'0 0.0
2014-Aug-01 04:28N 47°43' W 122°49'0 0.0
2014-Aug-01 03:52N 47°43' W 122°49'0 0.0
2014-Aug-01 03:31N 47°43' W 122°49'0 0.0
2014-Aug-01 02:25N 47°43' W 122°49'0 0.0
2014-Aug-01 01:31N 47°43' W 122°49'0 0.0
2014-Aug-01 00:31N 47°43' W 122°49'0 0.0
2014-Jul-31 23:28N 47°43' W 122°49'0 0.0
2014-Jul-31 22:28N 47°43' W 122°49'0 0.0
2014-Jul-31 21:29N 47°43' W 122°49'0 0.4
2014-Jul-31 20:33N 47°43' W 122°49'17 0.6
2014-Jul-30 17:22N 47°56' W 122°33'810.4
2014-Jul-30 16:35N 47°48' W 122°28'013.8
2014-Jul-30 16:33N 47°48' W 122°28'411.5
2014-Jul-30 16:15N 47°45' W 122°27'5 6.7
2014-Jul-30 15:29N 47°40' W 122°24'0 0.1
2014-Jul-30 15:10N 47°40' W 122°24'  
2014-Jul-23 17:36N 47°39' W 122°14'111.6
2014-Jul-23 17:31N 47°39' W 122°16'5 5.6
2014-Jul-23 16:33N 47°40' W 122°24'0 0.4
2014-Jul-23 16:27N 47°40' W 122°24'2 2.7
2014-Jul-23 15:33N 47°39' W 122°27'011.9
2014-Jul-23 15:31N 47°39' W 122°27'1111.9
2014-Jul-23 14:33N 47°27' W 122°31'  
Track history (hours):
 
Tides and Currents Weather Stations Pressure Air Temp Water Temp Dewpoint Dewpoint Depression Visibility Wind Speed Wind Dir Waves Ship Positions

Zero Trim

More information available from US FCC via Universal Licensing System and Coast Guard Vessel Documentation Center.

Last reported at 2014-Aug-02 02:32 UTC. Time now 2014-Aug-02 02:50 UTC.
Position N 47°43' W 122°49'.

Length 23 m.

Type: Pleasure craft. MMSI: 366747760.

Date/timePositionNaut miles runAvg speedWind from/ knotsBaromVisibWave heightAir tempDewpointWater temp
2014-Aug-02 02:32N 47°43' W 122°49'0 0.0
2014-Aug-02 01:29N 47°43' W 122°49'0 0.0
2014-Aug-02 00:33N 47°43' W 122°49'0 0.0
2014-Aug-01 23:32N 47°43' W 122°49'0 0.0
2014-Aug-01 22:32N 47°43' W 122°49'0 0.0
2014-Aug-01 21:25N 47°43' W 122°49'0 0.0
2014-Aug-01 20:29N 47°43' W 122°49'0 0.0
2014-Aug-01 19:31N 47°43' W 122°49'0 0.0
2014-Aug-01 18:30N 47°43' W 122°49'0 0.0
2014-Aug-01 17:16N 47°43' W 122°49'0 0.0
2014-Aug-01 16:31N 47°43' W 122°49'0 0.0
2014-Aug-01 15:49N 47°43' W 122°49'0 0.0
2014-Aug-01 15:25N 47°43' W 122°49'0 0.0
2014-Aug-01 14:31N 47°43' W 122°49'0 0.0
2014-Aug-01 13:25N 47°43' W 122°49'0 0.0
2014-Aug-01 12:28N 47°43' W 122°49'0 0.0
2014-Aug-01 11:31N 47°43' W 122°49'0 0.0
2014-Aug-01 10:49N 47°43' W 122°49'0 0.0
2014-Aug-01 10:31N 47°43' W 122°49'0 0.0
2014-Aug-01 09:31N 47°43' W 122°49'0 0.0
2014-Aug-01 09:13N 47°43' W 122°49'0 0.0
2014-Aug-01 08:28N 47°43' W 122°49'0 0.0
2014-Aug-01 07:28N 47°43' W 122°49'0 0.0
2014-Aug-01 06:28N 47°43' W 122°49'0 0.0
2014-Aug-01 05:52N 47°43' W 122°49'0 0.0
2014-Aug-01 05:22N 47°43' W 122°49'0 0.0
2014-Aug-01 04:28N 47°43' W 122°49'0 0.0
2014-Aug-01 03:52N 47°43' W 122°49'0 0.0
2014-Aug-01 03:31N 47°43' W 122°49'0 0.0
2014-Aug-01 02:25N 47°43' W 122°49'0 0.0
2014-Aug-01 01:31N 47°43' W 122°49'0 0.0
2014-Aug-01 00:31N 47°43' W 122°49'0 0.0
2014-Jul-31 23:28N 47°43' W 122°49'0 0.0
2014-Jul-31 22:28N 47°43' W 122°49'0 0.0
2014-Jul-31 21:29N 47°43' W 122°49'0 0.4
2014-Jul-31 20:33N 47°43' W 122°49'17 0.6
2014-Jul-30 17:22N 47°56' W 122°33'810.4
2014-Jul-30 16:35N 47°48' W 122°28'013.8
2014-Jul-30 16:33N 47°48' W 122°28'411.5
2014-Jul-30 16:15N 47°45' W 122°27'5 6.7
2014-Jul-30 15:29N 47°40' W 122°24'0 0.1
2014-Jul-30 15:10N 47°40' W 122°24'  
2014-Jul-23 17:36N 47°39' W 122°14'111.6
2014-Jul-23 17:31N 47°39' W 122°16'5 5.6
2014-Jul-23 16:33N 47°40' W 122°24'0 0.4
2014-Jul-23 16:27N 47°40' W 122°24'2 2.7
2014-Jul-23 15:33N 47°39' W 122°27'011.9
2014-Jul-23 15:31N 47°39' W 122°27'1111.9
2014-Jul-23 14:33N 47°27' W 122°31'  

Dump ship's entire track history